Ithaca, NY

6:26 PM EST on February 28, 2015 (GMT -0500)
Penn Yan | Change Station
CLOSE
Current Station
Airport
Location: Penn Yan,
Elevation: 902 ft
Nearby Weather Stations

Elev 902 ft 42.64 °N, 77.05 °W | Updated 33 minutes ago

Clear
Clear
17 °F
Feels Like 17 °F
N
0
Wind Variable Wind from North

Today
High -- | Low -- °F
--% Chance of Precip.
Yesterday
High -- | Low -- °F
Precip. -- in
6:43 AM 5:54 PM
Waxing Gibbous, 81% visible
Pressure 30.74 in
Visibility 10.0 miles
Clouds Clear
Dew Point 2 °F
Humidity 52%
Rainfall 0.00 in
Snow Depth Not available.
UV 0 out of 12
Pollen .30 out of 12
Air Quality Not available.
Flu Activity Not available.
METAR KPEO 282253Z AUTO 00000KT 10SM CLR M08/M17 A3066 RMK AO2 SLP409 T10831167

More Conditions Fewer Conditions

Pressure 30.74 in
Visibility 10.0 miles
Clouds Clear
Dew Point 2 °F
Humidity 52%
Rainfall 0.00 in
Snow Depth Not available.
UV 0 out of 12
Pollen .30 out of 12
Air Quality Not available.
Flu Activity Not available.
METAR KPEO 282253Z AUTO 00000KT 10SM CLR M08/M17 A3066 RMK AO2 SLP409 T10831167

More Conditions Fewer Conditions

10-Day Weather Forecast

Almanac

Astronomy

Feb. 28, 2015 Rise Set
Actual Time
Civil Twilight
Nautical Twilight
Astronomical Twilight
Moon
Length of Visible Light
Length of Day
Tomorrow will be .
, % of the Moon is Illuminated

Today's Extremes

State Highs State Lows

Community

WunderPhotos

Upload Photos

1,801,171 photos uploaded!

WunderBlogs® & News

Nearby

Air Quality

  Air Quality AQ Index Pollutant
Not available.

Snow Depth

Station Depth Elevation

Earthquake Activity

City Distance Mag. Time & Date
Minimum magnitude displayed is 2.5.

Coastal Water Temperatures

Place Temperature

Nearby Weather Stations